Terminal Aerodrome Forecast
Issued by NWS Wilmington, OH

Current Version | Previous Version | Text Only | Print | Product List | Glossary Off
Versions: 1 2 3 4 5 6 7 8 9 10 11 12 13 14 15 16 17 18 19 20 21

000
FTUS41 KILN 201743
TAFDAY
TAF
KDAY 201743Z 2018/2118 35004KT P6SM FEW040
     FM202200 05006KT P6SM VCTS BKN040CB
     FM210100 07007KT P6SM FEW050 BKN200
     FM210500 07006KT P6SM VCSH BKN050
     FM211000 08006KT P6SM BKN015
     FM211500 12006KT P6SM SCT030 BKN200=

USA.gov is the U.S. government's official web portal to all federal, state and local government web resources and services.